Time;durP1;ratioP1;P1;durP2;ratioP2;P2;SDS_P1;SDS_P2;PMS_P1;PMS_P2;Temp;Humidity;BMP_temperature;BMP_pressure;BME280_temperature;BME280_humidity;BME280_pressure;Samples;Min_cycle;Max_cycle;Signal;HPM_P1;HPM_P2
2022/12/06 00:01:45;;;;;;;5.05;3.50;;;;;;;10.96;75.09;101664.59;5051076;28;20444;-75
2022/12/06 00:04:14;;;;;;;13.65;3.88;;;;;;;10.97;74.80;101672.59;5050814;28;20025;-75
2022/12/06 00:06:50;;;;;;;17.85;3.85;;;;;;;11.05;74.56;101682.81;5052028;28;20591;-76
2022/12/06 00:09:19;;;;;;;11.75;3.30;;;;;;;10.88;74.92;101652.53;5054003;28;20481;-75
2022/12/06 00:11:45;;;;;;;13.85;4.05;;;;;;;11.12;74.62;101676.06;5054363;28;20086;-76
2022/12/06 00:14:11;;;;;;;10.43;2.78;;;;;;;11.13;74.72;101675.13;5053640;28;20110;-73
2022/12/06 00:16:37;;;;;;;9.07;3.85;;;;;;;11.10;74.95;101672.63;5052112;28;20025;-75
2022/12/06 00:19:03;;;;;;;4.15;2.95;;;;;;;11.01;75.08;101660.63;5053224;28;20152;-75
2022/12/06 00:21:32;;;;;;;9.00;2.95;;;;;;;11.10;74.62;101672.63;5052986;28;20036;-75
2022/12/06 00:24:00;;;;;;;14.45;3.35;;;;;;;11.04;75.12;101659.59;5052358;28;20021;-76
2022/12/06 00:26:27;;;;;;;9.20;2.72;;;;;;;11.14;74.69;101668.75;5052371;28;20040;-75
2022/12/06 00:28:55;;;;;;;14.30;3.55;;;;;;;11.06;75.13;101665.72;5051092;28;20107;-75
2022/12/06 00:31:22;;;;;;;11.15;3.42;;;;;;;10.74;75.42;101633.72;5050324;28;20036;-76
2022/12/06 00:33:48;;;;;;;7.05;2.67;;;;;;;10.97;75.60;101652.88;5050464;28;20017;-74
2022/12/06 00:36:16;;;;;;;12.55;2.85;;;;;;;10.96;75.27;101659.22;5049559;28;20487;-74
2022/12/06 00:38:42;;;;;;;13.98;3.75;;;;;;;10.83;75.55;101649.25;5049592;28;20404;-75
2022/12/06 00:41:12;;;;;;;13.18;3.47;;;;;;;10.68;75.85;101623.38;5049408;28;20025;-76
2022/12/06 00:43:38;;;;;;;11.52;3.33;;;;;;;10.71;76.32;101623.16;5049225;28;20694;-75
2022/12/06 00:46:05;;;;;;;11.27;3.75;;;;;;;10.95;75.56;101646.75;5049196;28;20064;-74
2022/12/06 00:48:31;;;;;;;8.93;3.20;;;;;;;11.01;75.54;101646.31;5048823;28;20397;-74
2022/12/06 00:50:56;;;;;;;6.70;2.70;;;;;;;11.01;75.72;101636.41;5049147;28;20059;-74
2022/12/06 00:53:23;;;;;;;23.35;3.60;;;;;;;11.11;75.36;101639.34;5049113;28;20055;-74
2022/12/06 00:55:49;;;;;;;11.18;3.60;;;;;;;11.04;75.16;101632.66;5049098;28;20112;-74
2022/12/06 00:58:15;;;;;;;12.07;4.65;;;;;;;11.11;74.44;101626.75;5048916;28;20040;-76
2022/12/06 01:00:41;;;;;;;7.97;3.25;;;;;;;10.99;75.16;101632.09;5048917;28;20025;-74
2022/12/06 01:03:07;;;;;;;8.88;3.03;;;;;;;11.02;75.43;101638.13;5048967;28;20464;-75
2022/12/06 01:05:33;;;;;;;13.07;3.75;;;;;;;11.03;75.19;101625.53;5048794;28;20021;-74
2022/12/06 01:07:59;;;;;;;15.63;4.20;;;;;;;11.09;74.61;101628.69;5048889;28;20033;-74
2022/12/06 01:10:24;;;;;;;10.07;3.20;;;;;;;11.09;75.01;101627.81;5048727;28;20059;-75
2022/12/06 01:12:50;;;;;;;14.70;3.72;;;;;;;10.79;74.99;101599.28;5049758;28;20103;-74
2022/12/06 01:15:16;;;;;;;11.25;3.22;;;;;;;10.88;75.26;101620.25;5049100;28;20111;-74
2022/12/06 01:17:41;;;;;;;9.27;3.30;;;;;;;10.67;75.88;101599.28;5048474;28;20028;-75
2022/12/06 01:20:07;;;;;;;7.82;3.40;;;;;;;10.90;75.86;101645.22;5052738;28;20594;-75
2022/12/06 01:22:33;;;;;;;10.20;3.60;;;;;;;10.84;75.36;101629.47;5052856;28;20052;-75
2022/12/06 01:24:58;;;;;;;16.58;3.67;;;;;;;10.81;75.58;101629.66;5052899;28;20029;-76
2022/12/06 01:27:24;;;;;;;15.45;3.53;;;;;;;10.65;76.06;101620.88;5053790;28;20025;-74
2022/12/06 01:29:50;;;;;;;10.73;2.90;;;;;;;10.51;76.62;101612.00;5053444;28;20485;-73
2022/12/06 01:32:15;;;;;;;9.73;3.80;;;;;;;10.41;76.40;101598.28;5052623;28;20028;-74
2022/12/06 01:34:42;;;;;;;9.02;2.60;;;;;;;10.53;76.43;101607.38;5053410;28;20044;-76
2022/12/06 01:37:07;;;;;;;15.43;3.10;;;;;;;10.50;77.36;101603.06;5067589;28;20043;-73
2022/12/06 01:39:33;;;;;;;7.68;3.38;;;;;;;10.59;76.69;101607.84;5052752;28;20025;-74
2022/12/06 01:41:58;;;;;;;10.73;3.47;;;;;;;10.71;76.68;101607.03;5052177;28;20090;-75
2022/12/06 01:44:47;;;;;;;15.48;4.47;;;;;;;10.66;76.42;101608.28;5051124;28;20025;-73
2022/12/06 01:47:34;;;;;;;12.05;3.40;;;;;;;10.65;76.46;101609.25;5052309;28;20033;-76
2022/12/06 01:50:21;;;;;;;18.83;3.53;;;;;;;10.65;76.56;101596.66;5052118;28;20435;-75
2022/12/06 01:52:59;;;;;;;6.10;2.90;;;;;;;10.66;76.37;101587.63;5052426;28;20119;-77
2022/12/06 01:55:28;;;;;;;9.43;3.55;;;;;;;10.64;76.94;101588.72;5052217;28;20517;-75
2022/12/06 01:57:59;;;;;;;7.03;2.47;;;;;;;10.62;76.24;101591.50;5052127;28;20017;-74
2022/12/06 02:00:24;;;;;;;6.78;2.97;;;;;;;10.68;76.70;101591.09;5051946;28;20028;-73
2022/12/06 02:02:51;;;;;;;10.13;2.58;;;;;;;10.42;75.96;101562.38;5052159;28;20025;-74
2022/12/06 02:05:17;;;;;;;24.05;3.97;;;;;;;10.56;76.22;101591.03;5050704;28;20035;-75
2022/12/06 02:07:43;;;;;;;9.23;3.28;;;;;;;10.47;76.58;101578.19;5052134;28;20029;-75
2022/12/06 02:10:09;;;;;;;12.80;3.78;;;;;;;10.41;77.14;101586.66;5049262;28;20128;-74
2022/12/06 02:12:35;;;;;;;7.68;3.47;;;;;;;10.38;76.92;101591.28;5049058;28;20487;-74
2022/12/06 02:15:01;;;;;;;12.45;3.72;;;;;;;10.23;76.98;101545.72;5015904;28;20041;-75
2022/12/06 02:18:00;;;;;;;5.13;2.83;;;;;;;10.33;77.05;101562.97;5049064;28;20057;-77
2022/12/06 02:20:33;;;;;;;9.35;2.88;;;;;;;10.57;77.17;101582.88;4989682;28;20034;-75
2022/12/06 02:23:13;;;;;;;5.85;3.10;;;;;;;10.51;76.97;101585.09;4973709;28;20037;-75
2022/12/06 02:26:03;;;;;;;12.93;2.75;;;;;;;10.43;77.18;101574.00;4989861;28;20141;-74
2022/12/06 02:28:52;;;;;;;8.02;3.03;;;;;;;10.33;77.38;101573.72;4989832;28;20034;-74
2022/12/06 02:31:23;;;;;;;5.72;2.60;;;;;;;10.40;77.48;101574.19;4990925;28;20042;-75
2022/12/06 02:33:59;;;;;;;7.63;2.60;;;;;;;10.22;77.00;101555.59;4992858;28;20042;-75
2022/12/06 02:36:42;;;;;;;19.77;2.83;;;;;;;10.26;77.01;101564.31;4989596;28;20046;-75
2022/12/06 02:39:26;;;;;;;12.60;2.20;;;;;;;10.07;77.39;101564.63;4989674;28;20039;-74
2022/12/06 02:42:04;;;;;;;6.03;2.72;;;;;;;10.11;77.53;101568.84;4989425;28;20562;-74
2022/12/06 02:44:50;;;;;;;7.97;2.85;;;;;;;10.04;77.64;101558.56;4989262;28;20096;-75
2022/12/06 02:47:20;;;;;;;12.13;2.30;;;;;;;9.89;78.08;101567.63;4989495;28;20046;-75
2022/12/06 02:49:53;;;;;;;6.97;3.38;;;;;;;9.92;78.37;101564.72;4989066;28;20042;-74
2022/12/06 02:52:25;;;;;;;4.80;2.10;;;;;;;9.77;78.76;101559.38;4989283;28;20053;-75
2022/12/06 02:54:53;;;;;;;14.55;2.60;;;;;;;9.77;78.58;101562.06;4989065;28;20026;-75
2022/12/06 02:57:32;;;;;;;6.55;2.65;;;;;;;9.77;78.42;101559.38;5005644;28;20458;-75
2022/12/06 02:59:57;;;;;;;11.38;2.95;;;;;;;9.90;78.37;101558.59;5051165;28;20029;-74
2022/12/06 03:02:23;;;;;;;9.50;2.10;;;;;;;9.92;78.07;101559.34;5050908;28;20028;-74
2022/12/06 03:05:20;;;;;;;6.78;2.55;;;;;;;9.85;78.28;101566.94;5050465;28;20078;-75
2022/12/06 03:07:47;;;;;;;16.38;2.38;;;;;;;9.98;77.82;101550.91;5050640;28;20559;-76
2022/12/06 03:11:05;;;;;;;6.55;2.33;;;;;;;9.92;77.85;101532.50;5051040;28;20029;-73
2022/12/06 03:13:48;;;;;;;5.45;2.50;;;;;;;10.06;77.42;101553.97;4950065;29;20043;-74
2022/12/06 03:16:26;;;;;;;14.95;2.13;;;;;;;10.04;77.37;101551.38;4930666;29;20131;-76
2022/12/06 03:19:12;;;;;;;12.95;2.22;;;;;;;9.94;77.72;101550.22;4930848;29;20036;-75
2022/12/06 03:21:41;;;;;;;12.88;2.42;;;;;;;10.05;77.52;101553.13;4930888;29;20127;-74
2022/12/06 03:24:11;;;;;;;15.93;2.63;;;;;;;10.21;76.96;101564.59;4930808;29;20131;-74
2022/12/06 03:26:38;;;;;;;7.93;1.70;;;;;;;9.89;76.18;101517.44;4930705;29;20071;-76
2022/12/06 03:29:07;;;;;;;3.97;2.45;;;;;;;9.98;77.00;101561.66;4930977;29;20070;-75
2022/12/06 03:31:37;;;;;;;15.20;2.55;;;;;;;10.07;77.47;101556.56;4930472;29;20043;-75
2022/12/06 03:34:10;;;;;;;7.43;1.95;;;;;;;10.16;76.92;101557.81;4932875;29;20071;-75
2022/12/06 03:36:38;;;;;;;7.65;2.75;;;;;;;10.22;76.94;101557.41;4934501;29;20039;-75
2022/12/06 03:39:07;;;;;;;17.70;2.90;;;;;;;10.21;76.12;101545.78;4932891;29;20038;-74
2022/12/06 03:41:40;;;;;;;5.53;2.83;;;;;;;10.23;76.18;101551.09;4930106;29;20385;-74
2022/12/06 03:44:06;;;;;;;5.00;2.13;;;;;;;10.31;75.58;101555.00;4930642;29;20047;-74
2022/12/06 03:46:36;;;;;;;9.02;2.28;;;;;;;10.37;75.12;101559.09;4933921;29;20050;-74
2022/12/06 03:49:05;;;;;;;6.85;2.20;;;;;;;10.46;74.66;101547.72;4959760;28;21305;-75
2022/12/06 03:51:34;;;;;;;11.50;2.58;;;;;;;10.26;74.39;101530.25;5049787;28;20095;-74
2022/12/06 03:54:03;;;;;;;7.72;2.15;;;;;;;10.40;74.39;101558.06;5049768;28;20025;-75
2022/12/06 03:56:30;;;;;;;3.13;1.98;;;;;;;10.48;74.30;101551.19;5049553;28;20090;-76
2022/12/06 03:58:55;;;;;;;6.80;1.88;;;;;;;10.59;74.08;101555.84;5049765;28;20067;-74
2022/12/06 04:01:20;;;;;;;6.38;2.03;;;;;;;10.57;73.72;101545.22;5049997;28;20039;-74
2022/12/06 04:03:46;;;;;;;12.57;2.63;;;;;;;10.58;73.75;101549.59;5049437;28;20148;-74
2022/12/06 04:06:11;;;;;;;8.25;2.20;;;;;;;10.17;74.13;101492.34;5049699;28;20029;-76
2022/12/06 04:08:37;;;;;;;15.88;3.15;;;;;;;10.62;73.89;101550.28;5049679;28;20104;-76
2022/12/06 04:11:03;;;;;;;22.60;2.58;;;;;;;10.70;73.97;101546.09;5049622;28;20040;-75
2022/12/06 04:13:29;;;;;;;8.23;4.85;;;;;;;10.77;73.43;101542.03;5049178;28;20028;-74
2022/12/06 04:15:57;;;;;;;15.00;3.50;;;;;;;10.70;72.93;101513.81;5049909;28;20029;-74
2022/12/06 04:18:23;;;;;;;5.93;2.80;;;;;;;10.83;73.40;101536.22;5049516;28;20029;-74
2022/12/06 04:23:47;;;;;;;6.22;3.05;;;;;;;10.66;74.37;101549.97;5049570;28;20494;-75
2022/12/06 04:26:16;;;;;;;13.07;3.03;;;;;;;10.71;74.34;101547.81;5046998;28;20068;-76
2022/12/06 04:39:39;;;;;;;20.23;3.95;;;;;;;10.57;75.06;101560.47;5051705;28;20120;-75
2022/12/06 04:44:48;;;;;;;9.93;3.88;;;;;;;10.31;75.90;101559.50;5049536;28;20024;-75
2022/12/06 04:47:14;;;;;;;18.58;4.93;;;;;;;10.39;76.07;101557.19;5049078;28;20040;-74
2022/12/06 04:49:40;;;;;;;17.70;4.72;;;;;;;10.37;76.26;101549.22;5049224;28;20029;-74
2022/12/06 04:52:07;;;;;;;7.30;3.58;;;;;;;10.44;76.48;101549.66;5048576;28;20136;-76
2022/12/06 04:54:33;;;;;;;12.32;3.42;;;;;;;10.32;76.75;101545.97;5046935;28;20028;-74
2022/12/06 04:56:58;;;;;;;12.85;3.85;;;;;;;10.45;76.85;101551.41;5049028;28;20064;-74
2022/12/06 04:59:25;;;;;;;21.42;5.38;;;;;;;10.54;76.55;101541.84;5048631;28;20048;-75
2022/12/06 05:01:52;;;;;;;12.68;4.40;;;;;;;10.65;76.26;101540.16;5048894;28;20037;-75
2022/12/06 05:04:18;;;;;;;13.38;4.20;;;;;;;10.59;75.64;101543.28;5048697;28;20056;-74
2022/12/06 05:06:44;;;;;;;14.00;5.10;;;;;;;10.56;75.82;101527.34;5048807;28;20044;-75
2022/12/06 05:09:09;;;;;;;13.80;5.75;;;;;;;10.83;75.46;101556.91;5047249;28;20033;-75
2022/12/06 05:11:35;;;;;;;19.58;5.53;;;;;;;10.72;75.27;101554.06;5047808;28;20099;-75
2022/12/06 05:14:01;;;;;;;16.25;4.65;;;;;;;10.70;75.50;101551.47;5048443;28;20488;-74
2022/12/06 05:16:26;;;;;;;23.55;6.10;;;;;;;10.80;75.32;101552.59;5048875;28;20025;-76
2022/12/06 05:18:52;;;;;;;15.18;4.57;;;;;;;10.76;75.42;101534.91;5048496;28;20401;-76
2022/12/06 05:21:20;;;;;;;26.00;7.32;;;;;;;10.72;75.27;101528.03;5048868;28;20029;-75
2022/12/06 05:23:46;;;;;;;37.42;12.70;;;;;;;10.95;75.10;101542.59;5049023;28;20035;-75
2022/12/06 05:26:15;;;;;;;50.25;10.50;;;;;;;11.11;74.49;101545.09;5048715;28;20420;-76
2022/12/06 05:28:41;;;;;;;46.63;9.63;;;;;;;11.11;73.99;101543.28;5048973;28;20542;-79
2022/12/06 05:31:07;;;;;;;37.80;8.20;;;;;;;11.18;74.19;101547.28;5048574;28;20037;-75
2022/12/06 05:33:32;;;;;;;32.13;7.22;;;;;;;11.16;73.33;101532.22;5048990;28;20495;-79
2022/12/06 05:35:58;;;;;;;34.85;7.38;;;;;;;11.22;73.79;101538.00;5048669;28;20025;-75
2022/12/06 05:38:23;;;;;;;19.75;7.93;;;;;;;11.27;73.41;101535.88;5048872;28;20021;-76
2022/12/06 05:40:49;;;;;;;43.88;9.35;;;;;;;11.30;73.31;101541.03;5049164;28;20059;-75
2022/12/06 05:43:15;;;;;;;35.08;8.68;;;;;;;11.27;73.06;101545.78;5049806;28;20056;-74
2022/12/06 05:45:41;;;;;;;22.58;7.68;;;;;;;11.31;73.77;101547.28;5049597;28;20063;-75
2022/12/06 05:48:07;;;;;;;38.47;9.52;;;;;;;11.39;73.65;101545.78;5048385;28;20052;-75
2022/12/06 05:50:33;;;;;;;121.22;41.55;;;;;;;11.43;73.38;101535.66;5048484;28;20083;-75
2022/12/06 05:53:00;;;;;;;67.68;11.52;;;;;;;11.23;73.49;101512.81;5046795;28;20021;-75
2022/12/06 05:55:27;;;;;;;58.90;13.15;;;;;;;11.35;73.37;101530.81;5048057;28;20195;-76
2022/12/06 05:57:52;;;;;;;64.90;8.00;;;;;;;11.29;73.13;101506.13;5046114;28;20041;-75
2022/12/06 06:00:19;;;;;;;51.08;7.75;;;;;;;11.56;73.07;101549.97;5046040;28;20052;-76
2022/12/06 06:02:47;;;;;;;50.60;9.52;;;;;;;11.50;72.79;101536.94;5047834;28;20517;-74
2022/12/06 06:05:13;;;;;;;29.08;7.30;;;;;;;11.21;72.02;101493.22;5050245;28;20025;-75
2022/12/06 06:07:38;;;;;;;26.17;8.30;;;;;;;11.27;71.99;101508.94;5051629;28;20031;-75
2022/12/06 06:10:05;;;;;;;70.07;9.07;;;;;;;11.58;72.29;101556.13;5051603;28;20036;-76
2022/12/06 06:12:31;;;;;;;25.92;5.60;;;;;;;11.26;72.34;101519.81;5051450;28;20037;-76
2022/12/06 06:14:57;;;;;;;64.68;8.32;;;;;;;11.56;72.09;101546.44;5051394;28;20545;-75
2022/12/06 06:17:23;;;;;;;36.67;7.32;;;;;;;11.72;71.81;101558.72;5051702;28;20416;-75
2022/12/06 06:19:49;;;;;;;29.42;6.88;;;;;;;11.55;71.66;101528.53;5051989;28;20468;-75
2022/12/06 06:22:17;;;;;;;62.97;9.77;;;;;;;11.69;70.99;101558.91;5052438;28;20396;-76
2022/12/06 06:24:43;;;;;;;36.03;7.45;;;;;;;11.73;71.33;101555.06;5051680;28;20121;-75
2022/12/06 06:27:08;;;;;;;65.05;9.77;;;;;;;11.77;71.24;101553.88;5051557;28;20056;-75
2022/12/06 06:29:34;;;;;;;39.03;8.38;;;;;;;11.79;71.50;101553.75;5051805;28;20112;-75
2022/12/06 06:31:59;;;;;;;44.15;9.10;;;;;;;11.40;71.65;101487.41;5051371;28;20433;-76
2022/12/06 06:34:25;;;;;;;50.88;8.80;;;;;;;11.89;71.18;101549.44;5050521;28;20025;-76
2022/12/06 06:36:51;;;;;;;51.60;8.05;;;;;;;11.91;71.08;101553.75;5051033;28;20036;-76
2022/12/06 06:39:17;;;;;;;53.63;9.23;;;;;;;11.94;71.05;101553.53;5051649;28;20049;-75
2022/12/06 06:41:43;;;;;;;28.88;6.40;;;;;;;11.68;70.45;101514.06;5051613;28;20106;-76
2022/12/06 06:44:09;;;;;;;20.23;6.65;;;;;;;11.91;70.56;101544.78;5053236;28;20021;-77
2022/12/06 06:46:35;;;;;;;27.02;6.55;;;;;;;11.89;70.33;101550.31;5052669;28;20543;-77
2022/12/06 06:49:01;;;;;;;32.47;7.60;;;;;;;11.82;71.02;101551.72;5054421;28;20484;-76
2022/12/06 06:51:26;;;;;;;16.45;6.30;;;;;;;11.85;70.56;101543.41;5050770;28;20132;-74
2022/12/06 06:53:51;;;;;;;28.95;6.90;;;;;;;11.85;70.83;101540.72;5050992;28;20037;-75
2022/12/06 06:56:17;;;;;;;26.13;5.63;;;;;;;11.96;70.18;101545.31;5051367;28;20461;-76
2022/12/06 06:58:42;;;;;;;41.25;5.63;;;;;;;11.97;70.34;101547.03;5050839;28;20112;-75
2022/12/06 07:01:14;;;;;;;64.03;8.25;;;;;;;12.00;70.33;101553.09;5051068;28;20029;-77
2022/12/06 07:03:39;;;;;;;28.30;6.95;;;;;;;11.90;69.87;101521.50;5050809;28;20021;-76
2022/12/06 07:06:08;;;;;;;27.02;4.95;;;;;;;12.08;70.03;101548.97;5050729;28;20083;-75
2022/12/06 07:08:34;;;;;;;31.35;7.60;;;;;;;12.15;70.37;101552.94;5050655;28;20021;-74
2022/12/06 07:10:59;;;;;;;29.10;6.85;;;;;;;12.15;69.64;101545.69;5050749;28;20166;-74
2022/12/06 07:13:27;;;;;;;23.08;5.80;;;;;;;12.08;69.93;101543.59;5050698;28;20472;-75
2022/12/06 07:15:52;;;;;;;20.80;5.93;;;;;;;11.94;69.30;101521.19;5049803;28;20488;-76
2022/12/06 07:18:18;;;;;;;27.67;5.53;;;;;;;12.13;69.88;101552.19;5048100;28;20102;-75
2022/12/06 07:20:45;;;;;;;20.02;8.27;;;;;;;11.83;69.40;101507.59;5050582;28;20396;-74
2022/12/06 07:23:12;;;;;;;34.63;6.57;;;;;;;12.07;69.60;101547.25;5047783;28;20048;-75
2022/12/06 07:25:37;;;;;;;40.05;8.90;;;;;;;12.06;70.21;101542.81;5050444;28;20071;-76
2022/12/06 07:28:03;;;;;;;27.33;7.28;;;;;;;11.97;70.07;101547.91;5052231;28;20036;-75
2022/12/06 07:30:29;;;;;;;25.15;8.25;;;;;;;11.74;70.48;101505.56;5048596;28;20041;-75
2022/12/06 07:32:54;;;;;;;43.53;8.02;;;;;;;11.87;70.67;101536.06;5050616;28;20041;-74
2022/12/06 07:35:20;;;;;;;23.90;7.65;;;;;;;11.74;70.65;101504.72;5049943;28;20025;-76
2022/12/06 07:37:46;;;;;;;26.65;8.02;;;;;;;11.87;71.33;101536.06;5049832;28;20118;-75
2022/12/06 07:40:14;;;;;;;29.00;8.40;;;;;;;11.90;71.49;101545.75;5050550;28;20127;-75
2022/12/06 07:45:23;;;;;;;17.15;7.45;;;;;;;11.90;70.86;101535.84;5050046;28;20087;-75
2022/12/06 07:47:49;;;;;;;30.85;10.65;;;;;;;11.65;71.03;101498.13;5049662;28;20033;-76
2022/12/06 07:50:18;;;;;;;27.65;7.43;;;;;;;11.84;71.11;101530.03;5052317;28;20033;-75
2022/12/06 07:52:45;;;;;;;29.27;10.00;;;;;;;11.96;71.34;101534.53;5052503;28;20488;-74
2022/12/06 07:55:11;;;;;;;38.58;9.02;;;;;;;11.95;71.00;101524.75;5050092;28;20037;-76
2022/12/06 07:57:37;;;;;;;39.38;7.97;;;;;;;11.96;70.49;101538.09;5049655;28;20408;-75
2022/12/06 08:00:05;;;;;;;17.50;6.75;;;;;;;11.93;70.31;101527.53;5049786;28;20029;-76
2022/12/06 08:02:31;;;;;;;31.80;7.38;;;;;;;12.13;70.43;101541.41;5049519;28;20032;-75
2022/12/06 08:04:57;;;;;;;26.73;5.80;;;;;;;12.20;69.27;101524.63;5049719;28;20116;-76
2022/12/06 08:07:23;;;;;;;26.85;9.20;;;;;;;12.05;69.85;101511.44;5049417;28;20079;-75
2022/12/06 08:09:50;;;;;;;20.85;6.97;;;;;;;12.01;69.68;101510.81;5049764;28;20032;-74
2022/12/06 08:12:15;;;;;;;50.50;13.48;;;;;;;12.14;69.95;101527.78;5049603;28;20028;-74
2022/12/06 08:14:41;;;;;;;22.20;9.90;;;;;;;12.19;69.59;101519.38;5049260;28;20029;-74
2022/12/06 08:17:06;;;;;;;31.17;11.73;;;;;;;12.25;69.58;101530.56;5049241;28;20029;-75
2022/12/06 08:19:32;;;;;;;40.75;10.02;;;;;;;12.29;69.37;101526.66;5048969;28;20032;-76
2022/12/06 08:21:58;;;;;;;22.38;6.95;;;;;;;12.23;69.10;101518.19;5049135;28;20104;-75
2022/12/06 08:24:23;;;;;;;16.55;7.00;;;;;;;12.31;68.91;101515.75;5046639;28;20122;-76
2022/12/06 08:26:51;;;;;;;22.20;6.45;;;;;;;12.16;69.16;101503.41;5049137;28;20040;-76
2022/12/06 08:29:17;;;;;;;14.27;6.68;;;;;;;12.00;69.58;101515.34;5048834;28;20029;-75
2022/12/06 08:31:44;;;;;;;21.27;6.28;;;;;;;11.95;69.58;101505.88;5048943;28;20049;-75
2022/12/06 08:34:11;;;;;;;9.10;4.65;;;;;;;11.94;69.58;101498.75;5047454;28;20035;-75
2022/12/06 08:36:38;;;;;;;19.35;5.78;;;;;;;11.76;70.00;101470.44;5048855;28;20452;-75
2022/12/06 08:39:05;;;;;;;28.95;7.38;;;;;;;11.75;70.24;101499.22;5049059;28;20078;-75
2022/12/06 08:44:18;;;;;;;38.65;6.80;;;;;;;11.88;70.62;101489.28;5048728;28;20123;-75
2022/12/06 08:46:44;;;;;;;19.85;7.10;;;;;;;11.74;70.75;101472.41;5048725;28;20055;-75
2022/12/06 08:49:11;;;;;;;21.40;6.20;;;;;;;11.76;70.81;101474.00;5048980;28;20033;-74
2022/12/06 08:51:37;;;;;;;20.58;5.82;;;;;;;11.81;70.90;101470.94;5054500;28;20060;-76
2022/12/06 08:54:02;;;;;;;24.33;5.07;;;;;;;11.81;70.60;101471.81;5053526;28;20074;-75
2022/12/06 08:56:28;;;;;;;28.70;5.57;;;;;;;11.58;71.15;101436.72;5050964;28;20056;-75
2022/12/06 08:58:55;;;;;;;32.13;4.97;;;;;;;11.80;71.31;101469.25;5048711;28;20515;-75
2022/12/06 09:01:24;;;;;;;17.08;4.07;;;;;;;11.75;70.71;101488.44;5048835;28;20745;-75
2022/12/06 09:03:49;;;;;;;34.75;5.18;;;;;;;11.74;71.18;101470.53;5048821;28;20033;-74
2022/12/06 09:06:16;;;;;;;36.83;7.22;;;;;;;11.69;71.35;101467.28;5048533;28;20033;-74
2022/12/06 09:08:41;;;;;;;22.40;5.90;;;;;;;11.75;71.19;101468.72;5048562;28;20029;-75
2022/12/06 09:11:08;;;;;;;14.60;6.07;;;;;;;11.80;70.60;101456.59;5047116;28;20048;-75
2022/12/06 09:13:35;;;;;;;33.10;5.80;;;;;;;11.69;71.32;101461.91;5048158;28;20443;-74
2022/12/06 09:16:05;;;;;;;17.80;5.07;;;;;;;11.64;71.58;101445.22;5048481;28;20470;-76
2022/12/06 09:18:31;;;;;;;23.27;5.30;;;;;;;11.69;72.03;101451.13;5048241;28;20503;-75
2022/12/06 09:20:56;;;;;;;8.10;3.40;;;;;;;11.65;71.33;101446.91;5048404;28;20037;-76
2022/12/06 09:23:21;;;;;;;15.25;3.65;;;;;;;11.72;71.29;101450.94;5048381;28;20017;-75
2022/12/06 09:25:47;;;;;;;25.40;5.90;;;;;;;11.83;71.34;101453.69;5048254;28;20033;-76
2022/12/06 09:28:12;;;;;;;8.80;4.00;;;;;;;11.83;71.45;101448.31;5048228;28;20120;-76
2022/12/06 09:30:38;;;;;;;20.55;4.25;;;;;;;11.89;71.07;101444.31;5048540;28;20062;-76
2022/12/06 09:33:03;;;;;;;47.53;6.30;;;;;;;11.83;71.26;101432.13;5048700;28;20025;-75
2022/12/06 09:35:29;;;;;;;20.67;4.05;;;;;;;11.90;70.77;101427.16;5048076;28;20529;-74
2022/12/06 09:37:55;;;;;;;23.13;5.55;;;;;;;11.88;70.81;101424.59;5048152;28;20013;-75
2022/12/06 09:40:32;;;;;;;38.58;5.72;;;;;;;11.79;71.39;101425.25;5048087;28;20037;-75
2022/12/06 09:43:13;;;;;;;21.27;4.72;;;;;;;11.88;71.42;101419.19;5052393;28;20549;-75
2022/12/06 09:46:01;;;;;;;19.08;4.20;;;;;;;11.89;70.99;101412.84;5052453;28;20362;-76
2022/12/06 09:48:29;;;;;;;46.33;7.07;;;;;;;12.00;71.41;101415.59;5052054;28;20057;-76
2022/12/06 09:51:18;;;;;;;30.50;6.22;;;;;;;12.09;71.03;101415.84;5051811;28;20458;-76
2022/12/06 09:53:49;;;;;;;17.92;4.35;;;;;;;12.16;70.33;101403.63;5052659;28;20037;-76
2022/12/06 09:56:25;;;;;;;21.73;4.72;;;;;;;12.10;70.20;101412.19;5057128;28;20103;-76
2022/12/06 09:59:11;;;;;;;7.50;3.95;;;;;;;11.93;70.82;101390.03;5056407;28;20107;-76
2022/12/06 10:01:53;;;;;;;19.42;5.30;;;;;;;12.16;70.73;101403.63;5051448;28;20527;-74
2022/12/06 10:04:51;;;;;;;37.65;5.38;;;;;;;11.67;70.77;101337.22;5051633;28;20037;-75
2022/12/06 10:07:26;;;;;;;26.15;4.25;;;;;;;12.10;70.85;101406.81;5050344;28;20037;-75
2022/12/06 10:10:00;;;;;;;15.18;3.38;;;;;;;11.99;70.77;101391.41;5051593;28;20036;-74
2022/12/06 10:12:40;;;;;;;8.55;3.05;;;;;;;11.95;70.76;101393.50;5051426;28;20175;-76
2022/12/06 10:15:18;;;;;;;18.83;4.15;;;;;;;11.84;71.28;101395.25;5051780;28;20037;-76
2022/12/06 10:18:13;;;;;;;10.93;5.15;;;;;;;11.78;71.78;101384.94;5051313;28;20978;-75
2022/12/06 10:21:02;;;;;;;13.25;3.50;;;;;;;11.81;71.96;101377.47;5008799;28;20088;-75
2022/12/06 10:23:37;;;;;;;20.17;4.05;;;;;;;11.61;71.53;101334.97;5009225;28;20548;-74
2022/12/06 10:26:13;;;;;;;31.65;4.80;;;;;;;11.79;72.61;101378.56;5008939;28;20038;-75
2022/12/06 10:28:57;;;;;;;9.32;3.25;;;;;;;11.74;72.72;101376.22;5008578;28;20025;-76
2022/12/06 10:31:28;;;;;;;16.20;4.38;;;;;;;11.65;73.82;101367.94;5008690;28;20052;-75
2022/12/06 10:34:06;;;;;;;21.73;4.28;;;;;;;11.45;73.20;101326.28;5008517;28;20030;-76
2022/12/06 10:36:57;;;;;;;29.90;4.97;;;;;;;11.74;72.80;101369.97;5009178;28;20561;-75
2022/12/06 10:39:28;;;;;;;12.38;3.60;;;;;;;11.71;73.38;101368.34;4950032;28;20047;-75
2022/12/06 10:42:03;;;;;;;29.70;5.55;;;;;;;11.68;73.46;101363.16;4950312;28;20125;-76
2022/12/06 10:44:40;;;;;;;22.85;4.50;;;;;;;11.72;74.01;101359.31;4950390;28;20164;-74
2022/12/06 10:47:26;;;;;;;18.45;4.72;;;;;;;11.82;73.15;101359.47;4950331;28;20047;-75
2022/12/06 10:50:07;;;;;;;25.25;4.25;;;;;;;11.80;72.73;101350.66;4950285;28;20492;-76
2022/12/06 10:52:36;;;;;;;39.67;6.70;;;;;;;11.83;72.67;101342.34;4949046;28;20050;-75
2022/12/06 10:55:15;;;;;;;29.42;6.35;;;;;;;11.94;72.63;101332.47;4950396;28;20103;-75
2022/12/06 10:58:22;;;;;;;20.38;3.80;;;;;;;12.00;72.56;101326.59;4979792;28;20072;-75
2022/12/06 11:01:14;;;;;;;12.65;4.43;;;;;;;12.11;72.08;101324.94;4974441;28;20160;-74
2022/12/06 11:03:48;;;;;;;28.48;4.95;;;;;;;12.10;71.48;101315.13;4971580;28;20047;-76
2022/12/06 11:06:31;;;;;;;26.00;5.20;;;;;;;11.92;71.32;101285.91;4969404;28;20035;-74
2022/12/06 11:09:17;;;;;;;23.55;5.30;;;;;;;11.96;71.12;101287.38;4969614;28;20423;-75
2022/12/06 11:11:43;;;;;;;24.85;5.40;;;;;;;12.22;70.59;101324.97;4969298;28;20130;-76
2022/12/06 11:14:40;;;;;;;16.75;4.25;;;;;;;12.22;70.61;101330.34;4969196;28;20122;-74
2022/12/06 11:17:17;;;;;;;27.85;4.30;;;;;;;12.18;70.41;101320.78;5003058;28;20397;-75
2022/12/06 11:19:58;;;;;;;14.57;3.70;;;;;;;12.13;70.40;101315.75;5027796;28;20060;-75
2022/12/06 11:22:38;;;;;;;9.68;3.38;;;;;;;11.96;69.98;101286.50;5028022;28;20034;-76
2022/12/06 11:25:30;;;;;;;12.15;3.67;;;;;;;12.08;70.27;101309.00;5027861;28;20043;-76
2022/12/06 11:28:22;;;;;;;27.85;6.28;;;;;;;12.03;70.36;101309.34;5027883;28;20038;-76
2022/12/06 11:30:53;;;;;;;25.73;5.78;;;;;;;12.02;71.19;101306.78;5028090;28;20033;-75
2022/12/06 11:33:22;;;;;;;18.40;4.80;;;;;;;12.05;70.92;101301.97;5027921;28;20102;-75
2022/12/06 11:35:48;;;;;;;27.58;5.75;;;;;;;12.08;69.79;101290.13;5028083;28;20035;-75
2022/12/06 11:38:15;;;;;;;30.83;5.78;;;;;;;12.24;70.49;101304.13;5042763;28;20596;-75
2022/12/06 11:40:46;;;;;;;17.67;3.63;;;;;;;12.20;69.92;101289.16;5049980;28;20049;-77
2022/12/06 11:43:26;;;;;;;10.70;2.83;;;;;;;12.19;69.02;101290.13;5049919;28;20108;-75
2022/12/06 11:45:52;;;;;;;14.88;3.47;;;;;;;12.18;69.16;101286.56;5049996;28;20033;-76
2022/12/06 11:48:21;;;;;;;11.10;3.38;;;;;;;12.23;68.74;101283.53;5049601;28;20033;-74
2022/12/06 11:50:48;;;;;;;16.60;2.97;;;;;;;12.26;68.43;101283.28;5048537;28;20148;-75
2022/12/06 11:53:25;;;;;;;26.30;5.15;;;;;;;12.26;68.30;101288.69;5049673;28;20154;-75
2022/12/06 11:55:55;;;;;;;29.55;4.38;;;;;;;11.99;68.49;101244.00;5049356;28;20514;-75